KOQT METAR and TAF weather

Enter ICAO airport designator
Station Type Date Time Source
KOQT METAR 2017/12/15 09:53 UTC NOAA

KOQT 150953Z AUTO 00000KT 10SM OVC038 M01/M03 A3003 RMK AO2 SLP178 T10061028


Station Type Date Time Source
KOQT Decoded METAR 2017/12/15 09:53 UTC NOAA

OAK RIDGE, TN, United States (KOQT) 36-01N 84-14W
Dec 15, 2017 - 04:53 AM EST / 2017.12.15 0953 UTC
Wind: Calm:0
Visibility: 10 mile(s):0
Sky conditions: overcast
Temperature: 30.9 F (-0.6 C)
Dew Point: 27.0 F (-2.8 C)
Relative Humidity: 85%
Pressure (altimeter): 30.03 in. Hg (1016 hPa)
ob: KOQT 150953Z AUTO 00000KT 10SM OVC038 M01/M03 A3003 RMK AO2 SLP178 T10061028
cycle: 10

Station Type Date Time Source
KOQT TAF UTC NOAA

Error!


Example: see airport list